Currently 59°F in San Jacinto, California, USA
59°F
63°F / 59°F
calm
0.00"
Tuesday, September 25, 2018 3:58 AM PDT

San Jacinto, California Weather Summary
Last 36 Hours

Temperature Winds Hourly Humidity Dewpoint
Time Report Norm Report Norm Max Gusts Precip. Rpt. Norm Rpt. Norm Pressure
1,3Tue 03:58 AM  58.8°F  62°F  calm  calm  none  0.00"  87%  64%  55°F  49°F  29.93"
Tue 03:00 AM  59.7°F  63°F  calm  calm  none  0.00"  85%  63%  55°F  49°F  29.94"
Tue 02:00 AM  61.3°F  64°F  calm  calm  none  0.00"  83%  61%  56°F  50°F  29.95"
Tue 01:00 AM  62.4°F  65°F  calm  calm  none  0.00"  84%  59%  57°F  50°F  29.95"
2Tue 12:00 AM  63.1°F  67°F  calm  1 mph  none  0.00"  84%  57%  58°F  50°F  29.95"
Mon 11:00 PM  63.9°F  69°F  calm  1 mph  2 mph  0.00"  82%  54%  58°F  51°F  29.94"
Mon 10:00 PM  65.1°F  70°F  1 mph SW  1 mph  3 mph  0.00"  79%  52%  58°F  51°F  29.94"
Mon 09:00 PM  66.6°F  73°F  2 mph SW  1 mph  7 mph  0.00"  77%  49%  59°F  52°F  29.93"
Mon 08:00 PM  68.9°F  75°F  3 mph S  2 mph  10 mph  0.00"  71%  45%  59°F  51°F  29.92"
Mon 07:00 PM  73.0°F  78°F  6 mph S  3 mph  13 mph  0.00"  63%  39%  59°F  50°F  29.89"
Mon 06:00 PM  78.4°F  82°F  9 mph SW  4 mph  13 mph  0.00"  53%  33%  59°F  48°F  29.86"
Mon 05:00 PM  82.0°F  84°F  8 mph SW  5 mph  14 mph  0.00"  49%  28%  60°F  47°F  29.85"
Mon 04:00 PM  83.7°F  86°F  9 mph SW  4 mph  14 mph  0.00"  46%  25%  60°F  45°F  29.85"
Mon 03:00 PM  84.6°F  87°F  4 mph S  4 mph  14 mph  0.00"  44%  24%  60°F  44°F  29.87"
Mon 02:00 PM  82.2°F  86°F  6 mph SW  3 mph  11 mph  0.00"  45%  25%  58°F  44°F  29.89"
Mon 01:00 PM  80.4°F  84°F  4 mph S  3 mph  11 mph  0.00"  49%  27%  59°F  45°F  29.91"
Mon 12:00 PM  78.8°F  82°F  5 mph SW  3 mph  10 mph  0.00"  52%  32%  59°F  48°F  29.93"
Mon 11:00 AM  74.5°F  78°F  2 mph W  2 mph  6 mph  0.00"  59%  37%  59°F  49°F  29.94"
Mon 10:00 AM  70.2°F  73°F  calm  1 mph  3 mph  0.00"  68%  44%  59°F  49°F  29.94"
Mon 09:00 AM  65.1°F  69°F  2 mph SW  1 mph  5 mph  0.00"  78%  52%  58°F  50°F  29.94"
Mon 08:00 AM  61.3°F  63°F  1 mph E  calm  2 mph  0.00"  81%  61%  55°F  49°F  29.93"
Mon 07:00 AM  58.5°F  59°F  calm  calm  none  0.00"  83%  67%  53°F  48°F  29.90"
Mon 06:00 AM  60.3°F  60°F  calm  calm  none  0.00"  83%  67%  55°F  48°F  29.90"
Mon 05:00 AM  61.3°F  61°F  calm  calm  none  0.00"  84%  66%  56°F  49°F  29.87"
Mon 04:00 AM  62.8°F  62°F  calm  calm  2 mph  0.00"  84%  64%  58°F  49°F  29.87"
Mon 03:00 AM  63.7°F  63°F  calm  calm  3 mph  0.00"  84%  63%  59°F  49°F  29.89"
Mon 02:00 AM  64.2°F  64°F  calm  calm  none  0.00"  83%  61%  59°F  50°F  29.90"
Mon 01:00 AM  65.5°F  65°F  calm  calm  3 mph  0.00"  80%  60%  59°F  50°F  29.90"
Mon 12:00 AM  67.1°F  67°F  calm  1 mph  3 mph  0.00"  75%  58%  59°F  51°F  29.89"
Sun 11:00 PM  69.4°F  69°F  2 mph SW  1 mph  5 mph  0.00"  70%  55%  59°F  51°F  29.89"
Sun 10:00 PM  71.1°F  70°F  2 mph SW  1 mph  3 mph  0.00"  66%  53%  59°F  52°F  29.88"
Sun 09:00 PM  72.9°F  73°F  2 mph SW  1 mph  7 mph  0.00"  60%  50%  58°F  52°F  29.87"
Sun 08:00 PM  75.0°F  75°F  2 mph SE  2 mph  11 mph  0.00"  56%  45%  58°F  51°F  29.85"
Sun 07:00 PM  79.2°F  78°F  7 mph SW  3 mph  14 mph  0.00"  49%  39%  58°F  50°F  29.83"
Sun 06:00 PM  84.2°F  82°F  6 mph S  4 mph  16 mph  0.00"  43%  33%  59°F  49°F  29.82"
Sun 05:00 PM  89.6°F  84°F  8 mph SW  5 mph  22 mph  0.00"  32%  29%  55°F  47°F  29.81"
Sun 04:00 PM  91.8°F  86°F  9 mph W  4 mph  18 mph  0.00"  29%  25%  54°F  45°F  29.82"

  1. Current weather data. No green row appears if the current weather data is also the high or low for the current day.
  2. High temperature for the current day.
  3. Low temperature for the current day.

The San Jacinto, California weather pages are a service of WeatherCurrents. San Jacinto is located in the heart of the San Jacinto Valley, near Hemet, the Soboba Casino, and at the foot of the San Jacinto Mountains.
Copyright ©Tue Sep 25 03:59:41 PDT 2018  WeatherCurrents. All rights reserved. - Submit questions and comments - Privacy Policy

This page automatically refreshes every 10 minutes.